sensor_id;sensor_type;location;lat;lon;timestamp;P1;durP1;ratioP1;P2;durP2;ratioP2
3006;SDS011;1513;47.650;10.720;2023-05-07T00:00:48;8.70;;;6.30;;
3006;SDS011;1513;47.650;10.720;2023-05-07T00:03:14;10.50;;;7.60;;
3006;SDS011;1513;47.650;10.720;2023-05-07T00:05:41;9.47;;;7.37;;
3006;SDS011;1513;47.650;10.720;2023-05-07T00:08:07;11.97;;;7.50;;
3006;SDS011;1513;47.650;10.720;2023-05-07T00:10:33;13.30;;;8.53;;
3006;SDS011;1513;47.650;10.720;2023-05-07T00:13:00;15.60;;;9.33;;
3006;SDS011;1513;47.650;10.720;2023-05-07T00:15:26;13.67;;;9.80;;
3006;SDS011;1513;47.650;10.720;2023-05-07T00:17:53;13.37;;;9.13;;
3006;SDS011;1513;47.650;10.720;2023-05-07T00:20:19;11.93;;;8.90;;
3006;SDS011;1513;47.650;10.720;2023-05-07T00:22:45;26.87;;;8.90;;
3006;SDS011;1513;47.650;10.720;2023-05-07T00:25:11;17.23;;;9.10;;
3006;SDS011;1513;47.650;10.720;2023-05-07T00:27:38;11.60;;;7.83;;
3006;SDS011;1513;47.650;10.720;2023-05-07T00:30:04;12.00;;;8.53;;
3006;SDS011;1513;47.650;10.720;2023-05-07T00:32:32;11.00;;;7.90;;
3006;SDS011;1513;47.650;10.720;2023-05-07T00:34:58;9.97;;;6.67;;
3006;SDS011;1513;47.650;10.720;2023-05-07T00:37:24;9.53;;;7.60;;
3006;SDS011;1513;47.650;10.720;2023-05-07T00:39:51;10.47;;;6.77;;
3006;SDS011;1513;47.650;10.720;2023-05-07T00:42:17;11.33;;;6.93;;
3006;SDS011;1513;47.650;10.720;2023-05-07T00:44:43;10.60;;;7.33;;
3006;SDS011;1513;47.650;10.720;2023-05-07T00:47:10;8.73;;;6.80;;
3006;SDS011;1513;47.650;10.720;2023-05-07T00:49:37;7.40;;;6.20;;
3006;SDS011;1513;47.650;10.720;2023-05-07T00:52:06;7.67;;;6.13;;
3006;SDS011;1513;47.650;10.720;2023-05-07T00:54:34;8.70;;;6.73;;
3006;SDS011;1513;47.650;10.720;2023-05-07T00:57:01;9.50;;;7.03;;
3006;SDS011;1513;47.650;10.720;2023-05-07T00:59:28;12.77;;;7.70;;
3006;SDS011;1513;47.650;10.720;2023-05-07T01:01:55;18.13;;;7.40;;
3006;SDS011;1513;47.650;10.720;2023-05-07T01:04:22;18.97;;;7.53;;
3006;SDS011;1513;47.650;10.720;2023-05-07T01:06:48;9.80;;;7.27;;
3006;SDS011;1513;47.650;10.720;2023-05-07T01:09:15;9.67;;;7.23;;
3006;SDS011;1513;47.650;10.720;2023-05-07T01:11:41;9.30;;;7.50;;
3006;SDS011;1513;47.650;10.720;2023-05-07T01:14:08;11.03;;;8.23;;
3006;SDS011;1513;47.650;10.720;2023-05-07T01:16:36;7.33;;;6.40;;
3006;SDS011;1513;47.650;10.720;2023-05-07T01:19:03;9.70;;;7.77;;
3006;SDS011;1513;47.650;10.720;2023-05-07T01:21:29;13.40;;;9.10;;
3006;SDS011;1513;47.650;10.720;2023-05-07T01:24:00;10.70;;;8.20;;
3006;SDS011;1513;47.650;10.720;2023-05-07T01:26:30;15.10;;;9.23;;
3006;SDS011;1513;47.650;10.720;2023-05-07T01:28:57;11.00;;;8.10;;
3006;SDS011;1513;47.650;10.720;2023-05-07T01:31:23;11.90;;;8.20;;
3006;SDS011;1513;47.650;10.720;2023-05-07T01:33:50;12.20;;;8.53;;
3006;SDS011;1513;47.650;10.720;2023-05-07T01:36:18;13.00;;;8.80;;
3006;SDS011;1513;47.650;10.720;2023-05-07T01:38:45;11.00;;;8.67;;
3006;SDS011;1513;47.650;10.720;2023-05-07T01:41:11;13.37;;;8.73;;
3006;SDS011;1513;47.650;10.720;2023-05-07T01:43:39;14.30;;;9.47;;
3006;SDS011;1513;47.650;10.720;2023-05-07T01:46:06;13.77;;;8.80;;
3006;SDS011;1513;47.650;10.720;2023-05-07T01:48:35;14.30;;;9.00;;
3006;SDS011;1513;47.650;10.720;2023-05-07T01:51:01;13.70;;;9.37;;
3006;SDS011;1513;47.650;10.720;2023-05-07T01:53:28;12.03;;;9.33;;
3006;SDS011;1513;47.650;10.720;2023-05-07T01:55:54;15.40;;;9.07;;
3006;SDS011;1513;47.650;10.720;2023-05-07T01:58:21;15.73;;;8.67;;
3006;SDS011;1513;47.650;10.720;2023-05-07T02:00:48;12.67;;;8.03;;
3006;SDS011;1513;47.650;10.720;2023-05-07T02:03:14;13.07;;;8.70;;
3006;SDS011;1513;47.650;10.720;2023-05-07T02:05:49;15.47;;;8.73;;
3006;SDS011;1513;47.650;10.720;2023-05-07T02:08:26;10.00;;;7.63;;
3006;SDS011;1513;47.650;10.720;2023-05-07T02:10:52;11.73;;;8.53;;
3006;SDS011;1513;47.650;10.720;2023-05-07T02:13:19;9.27;;;6.80;;
3006;SDS011;1513;47.650;10.720;2023-05-07T02:15:47;10.93;;;7.07;;
3006;SDS011;1513;47.650;10.720;2023-05-07T02:18:16;9.20;;;6.93;;
3006;SDS011;1513;47.650;10.720;2023-05-07T02:20:43;10.37;;;7.40;;
3006;SDS011;1513;47.650;10.720;2023-05-07T02:23:09;10.53;;;7.43;;
3006;SDS011;1513;47.650;10.720;2023-05-07T02:25:35;10.43;;;6.60;;
3006;SDS011;1513;47.650;10.720;2023-05-07T02:28:02;7.33;;;6.27;;
3006;SDS011;1513;47.650;10.720;2023-05-07T02:30:40;7.77;;;6.67;;
3006;SDS011;1513;47.650;10.720;2023-05-07T02:33:06;10.63;;;6.90;;
3006;SDS011;1513;47.650;10.720;2023-05-07T02:35:33;10.50;;;6.93;;
3006;SDS011;1513;47.650;10.720;2023-05-07T02:38:00;8.10;;;6.80;;
3006;SDS011;1513;47.650;10.720;2023-05-07T02:40:26;8.57;;;6.23;;
3006;SDS011;1513;47.650;10.720;2023-05-07T02:42:52;7.30;;;5.93;;
3006;SDS011;1513;47.650;10.720;2023-05-07T02:45:19;13.00;;;6.20;;
3006;SDS011;1513;47.650;10.720;2023-05-07T02:47:47;7.90;;;6.17;;
3006;SDS011;1513;47.650;10.720;2023-05-07T02:50:14;9.60;;;6.83;;
3006;SDS011;1513;47.650;10.720;2023-05-07T02:52:40;10.50;;;7.00;;
3006;SDS011;1513;47.650;10.720;2023-05-07T02:55:06;8.80;;;7.47;;
3006;SDS011;1513;47.650;10.720;2023-05-07T02:57:33;9.67;;;6.97;;
3006;SDS011;1513;47.650;10.720;2023-05-07T03:00:06;9.33;;;6.27;;
3006;SDS011;1513;47.650;10.720;2023-05-07T03:02:44;6.73;;;6.03;;
3006;SDS011;1513;47.650;10.720;2023-05-07T03:05:11;11.03;;;6.40;;
3006;SDS011;1513;47.650;10.720;2023-05-07T03:07:37;7.43;;;5.57;;
3006;SDS011;1513;47.650;10.720;2023-05-07T03:10:04;8.90;;;6.63;;
3006;SDS011;1513;47.650;10.720;2023-05-07T03:12:31;9.73;;;6.90;;
3006;SDS011;1513;47.650;10.720;2023-05-07T03:14:57;9.50;;;6.73;;
3006;SDS011;1513;47.650;10.720;2023-05-07T03:17:23;8.50;;;7.00;;
3006;SDS011;1513;47.650;10.720;2023-05-07T03:19:50;10.00;;;6.73;;
3006;SDS011;1513;47.650;10.720;2023-05-07T03:22:16;8.13;;;6.03;;
3006;SDS011;1513;47.650;10.720;2023-05-07T03:24:42;7.53;;;5.87;;
3006;SDS011;1513;47.650;10.720;2023-05-07T03:27:09;9.30;;;5.77;;
3006;SDS011;1513;47.650;10.720;2023-05-07T03:29:35;7.30;;;6.07;;
3006;SDS011;1513;47.650;10.720;2023-05-07T03:32:02;8.83;;;6.13;;
3006;SDS011;1513;47.650;10.720;2023-05-07T03:34:28;7.47;;;6.00;;
3006;SDS011;1513;47.650;10.720;2023-05-07T03:36:54;8.57;;;6.60;;
3006;SDS011;1513;47.650;10.720;2023-05-07T03:39:22;7.53;;;6.17;;
3006;SDS011;1513;47.650;10.720;2023-05-07T03:41:49;11.90;;;6.70;;
3006;SDS011;1513;47.650;10.720;2023-05-07T03:44:15;9.47;;;7.20;;
3006;SDS011;1513;47.650;10.720;2023-05-07T03:46:41;8.97;;;5.97;;
3006;SDS011;1513;47.650;10.720;2023-05-07T03:49:09;10.87;;;6.60;;
3006;SDS011;1513;47.650;10.720;2023-05-07T03:51:36;7.40;;;6.07;;
3006;SDS011;1513;47.650;10.720;2023-05-07T03:54:03;7.93;;;6.50;;
3006;SDS011;1513;47.650;10.720;2023-05-07T03:56:31;9.40;;;6.40;;
3006;SDS011;1513;47.650;10.720;2023-05-07T03:58:59;8.27;;;6.00;;
3006;SDS011;1513;47.650;10.720;2023-05-07T04:01:26;10.60;;;7.40;;
3006;SDS011;1513;47.650;10.720;2023-05-07T04:03:53;10.90;;;6.90;;
3006;SDS011;1513;47.650;10.720;2023-05-07T04:06:20;8.07;;;6.37;;
3006;SDS011;1513;47.650;10.720;2023-05-07T04:08:48;9.17;;;6.67;;
3006;SDS011;1513;47.650;10.720;2023-05-07T04:11:14;8.13;;;6.07;;
3006;SDS011;1513;47.650;10.720;2023-05-07T04:13:41;18.27;;;7.60;;
3006;SDS011;1513;47.650;10.720;2023-05-07T04:16:08;11.97;;;7.33;;
3006;SDS011;1513;47.650;10.720;2023-05-07T04:18:36;10.53;;;7.23;;
3006;SDS011;1513;47.650;10.720;2023-05-07T04:21:04;10.23;;;7.63;;
3006;SDS011;1513;47.650;10.720;2023-05-07T04:23:30;8.50;;;6.20;;
3006;SDS011;1513;47.650;10.720;2023-05-07T04:26:01;7.00;;;6.07;;
3006;SDS011;1513;47.650;10.720;2023-05-07T04:28:36;7.73;;;6.53;;
3006;SDS011;1513;47.650;10.720;2023-05-07T04:31:03;7.97;;;6.30;;
3006;SDS011;1513;47.650;10.720;2023-05-07T04:33:31;7.70;;;6.40;;
3006;SDS011;1513;47.650;10.720;2023-05-07T04:35:58;7.87;;;5.80;;
3006;SDS011;1513;47.650;10.720;2023-05-07T04:38:29;7.40;;;6.10;;
3006;SDS011;1513;47.650;10.720;2023-05-07T04:41:02;6.87;;;5.87;;
3006;SDS011;1513;47.650;10.720;2023-05-07T04:43:29;6.20;;;5.50;;
3006;SDS011;1513;47.650;10.720;2023-05-07T04:45:56;6.60;;;5.10;;
3006;SDS011;1513;47.650;10.720;2023-05-07T04:48:24;8.50;;;6.13;;
3006;SDS011;1513;47.650;10.720;2023-05-07T04:50:52;6.73;;;5.03;;
3006;SDS011;1513;47.650;10.720;2023-05-07T04:53:19;7.20;;;5.70;;
3006;SDS011;1513;47.650;10.720;2023-05-07T04:55:48;11.63;;;7.23;;
3006;SDS011;1513;47.650;10.720;2023-05-07T04:58:14;11.77;;;7.53;;
3006;SDS011;1513;47.650;10.720;2023-05-07T05:00:42;9.87;;;7.10;;
3006;SDS011;1513;47.650;10.720;2023-05-07T05:03:09;10.57;;;7.20;;
3006;SDS011;1513;47.650;10.720;2023-05-07T05:05:37;14.30;;;6.73;;
3006;SDS011;1513;47.650;10.720;2023-05-07T05:08:04;9.73;;;6.57;;
3006;SDS011;1513;47.650;10.720;2023-05-07T05:10:31;8.90;;;6.60;;
3006;SDS011;1513;47.650;10.720;2023-05-07T05:12:58;8.23;;;6.13;;
3006;SDS011;1513;47.650;10.720;2023-05-07T05:15:25;13.37;;;6.90;;
3006;SDS011;1513;47.650;10.720;2023-05-07T05:17:51;8.30;;;7.07;;
3006;SDS011;1513;47.650;10.720;2023-05-07T05:20:18;11.53;;;7.53;;
3006;SDS011;1513;47.650;10.720;2023-05-07T05:22:44;13.10;;;7.53;;
3006;SDS011;1513;47.650;10.720;2023-05-07T05:25:12;6.40;;;5.50;;
3006;SDS011;1513;47.650;10.720;2023-05-07T05:27:38;6.40;;;5.53;;
3006;SDS011;1513;47.650;10.720;2023-05-07T05:30:05;6.40;;;5.80;;
3006;SDS011;1513;47.650;10.720;2023-05-07T05:32:33;6.33;;;5.30;;
3006;SDS011;1513;47.650;10.720;2023-05-07T05:34:59;6.07;;;4.63;;
3006;SDS011;1513;47.650;10.720;2023-05-07T05:37:26;4.60;;;4.20;;
3006;SDS011;1513;47.650;10.720;2023-05-07T05:39:52;4.67;;;4.23;;
3006;SDS011;1513;47.650;10.720;2023-05-07T05:42:20;4.60;;;4.07;;
3006;SDS011;1513;47.650;10.720;2023-05-07T05:44:46;5.87;;;4.03;;
3006;SDS011;1513;47.650;10.720;2023-05-07T05:47:13;4.50;;;4.10;;
3006;SDS011;1513;47.650;10.720;2023-05-07T05:49:39;4.33;;;4.03;;
3006;SDS011;1513;47.650;10.720;2023-05-07T05:52:07;5.10;;;4.40;;
3006;SDS011;1513;47.650;10.720;2023-05-07T05:54:35;3.57;;;3.27;;
3006;SDS011;1513;47.650;10.720;2023-05-07T05:57:01;2.90;;;2.70;;
3006;SDS011;1513;47.650;10.720;2023-05-07T05:59:29;3.23;;;3.03;;
3006;SDS011;1513;47.650;10.720;2023-05-07T06:01:55;3.60;;;3.10;;
3006;SDS011;1513;47.650;10.720;2023-05-07T06:04:22;3.40;;;3.20;;
3006;SDS011;1513;47.650;10.720;2023-05-07T06:06:48;8.43;;;3.50;;
3006;SDS011;1513;47.650;10.720;2023-05-07T06:09:15;4.50;;;3.33;;
3006;SDS011;1513;47.650;10.720;2023-05-07T06:11:43;7.53;;;3.27;;
3006;SDS011;1513;47.650;10.720;2023-05-07T06:14:11;3.80;;;3.50;;
3006;SDS011;1513;47.650;10.720;2023-05-07T06:16:38;3.20;;;3.00;;
3006;SDS011;1513;47.650;10.720;2023-05-07T06:19:05;3.57;;;3.20;;
3006;SDS011;1513;47.650;10.720;2023-05-07T06:21:32;3.97;;;3.67;;
3006;SDS011;1513;47.650;10.720;2023-05-07T06:23:59;3.20;;;3.00;;
3006;SDS011;1513;47.650;10.720;2023-05-07T06:26:25;2.87;;;2.77;;
3006;SDS011;1513;47.650;10.720;2023-05-07T06:28:51;2.67;;;2.57;;
3006;SDS011;1513;47.650;10.720;2023-05-07T06:31:19;2.77;;;2.57;;
3006;SDS011;1513;47.650;10.720;2023-05-07T06:34:00;2.90;;;2.70;;
3006;SDS011;1513;47.650;10.720;2023-05-07T06:36:32;3.13;;;2.87;;
3006;SDS011;1513;47.650;10.720;2023-05-07T06:39:03;2.63;;;2.47;;
3006;SDS011;1513;47.650;10.720;2023-05-07T06:41:29;2.87;;;2.50;;
3006;SDS011;1513;47.650;10.720;2023-05-07T06:44:00;3.30;;;2.93;;
3006;SDS011;1513;47.650;10.720;2023-05-07T06:46:38;3.60;;;2.60;;
3006;SDS011;1513;47.650;10.720;2023-05-07T06:49:05;2.37;;;2.27;;
3006;SDS011;1513;47.650;10.720;2023-05-07T06:51:31;3.53;;;2.60;;
3006;SDS011;1513;47.650;10.720;2023-05-07T06:54:01;2.30;;;2.20;;
3006;SDS011;1513;47.650;10.720;2023-05-07T06:56:31;2.43;;;2.20;;
3006;SDS011;1513;47.650;10.720;2023-05-07T06:58:59;4.37;;;2.60;;
3006;SDS011;1513;47.650;10.720;2023-05-07T07:01:28;5.90;;;2.90;;
3006;SDS011;1513;47.650;10.720;2023-05-07T07:03:54;3.90;;;2.83;;
3006;SDS011;1513;47.650;10.720;2023-05-07T07:06:22;2.93;;;2.73;;
3006;SDS011;1513;47.650;10.720;2023-05-07T07:08:49;2.80;;;2.60;;
3006;SDS011;1513;47.650;10.720;2023-05-07T07:11:16;2.57;;;2.37;;
3006;SDS011;1513;47.650;10.720;2023-05-07T07:13:43;2.70;;;2.50;;
3006;SDS011;1513;47.650;10.720;2023-05-07T07:16:09;2.73;;;2.20;;
3006;SDS011;1513;47.650;10.720;2023-05-07T07:18:36;2.40;;;2.30;;
3006;SDS011;1513;47.650;10.720;2023-05-07T07:21:03;2.27;;;2.17;;
3006;SDS011;1513;47.650;10.720;2023-05-07T07:23:29;3.17;;;2.20;;
3006;SDS011;1513;47.650;10.720;2023-05-07T07:25:56;3.63;;;2.33;;
3006;SDS011;1513;47.650;10.720;2023-05-07T07:28:23;2.37;;;2.27;;
3006;SDS011;1513;47.650;10.720;2023-05-07T07:30:49;2.13;;;2.03;;
3006;SDS011;1513;47.650;10.720;2023-05-07T07:33:16;2.47;;;2.27;;
3006;SDS011;1513;47.650;10.720;2023-05-07T07:35:43;3.90;;;1.80;;
3006;SDS011;1513;47.650;10.720;2023-05-07T07:38:09;3.23;;;1.97;;
3006;SDS011;1513;47.650;10.720;2023-05-07T07:40:36;4.90;;;2.00;;
3006;SDS011;1513;47.650;10.720;2023-05-07T07:43:04;2.10;;;2.00;;
3006;SDS011;1513;47.650;10.720;2023-05-07T07:45:31;3.00;;;2.70;;
3006;SDS011;1513;47.650;10.720;2023-05-07T07:47:57;2.17;;;1.90;;
3006;SDS011;1513;47.650;10.720;2023-05-07T07:50:23;2.57;;;2.37;;
3006;SDS011;1513;47.650;10.720;2023-05-07T07:52:50;3.23;;;2.50;;
3006;SDS011;1513;47.650;10.720;2023-05-07T07:55:19;2.03;;;1.93;;
3006;SDS011;1513;47.650;10.720;2023-05-07T07:57:49;2.77;;;2.40;;
3006;SDS011;1513;47.650;10.720;2023-05-07T08:00:16;3.07;;;2.70;;
3006;SDS011;1513;47.650;10.720;2023-05-07T08:02:42;2.40;;;2.20;;
3006;SDS011;1513;47.650;10.720;2023-05-07T08:05:13;2.63;;;2.37;;
3006;SDS011;1513;47.650;10.720;2023-05-07T08:07:41;2.80;;;2.60;;
3006;SDS011;1513;47.650;10.720;2023-05-07T08:10:08;2.60;;;2.40;;
3006;SDS011;1513;47.650;10.720;2023-05-07T08:12:34;4.20;;;2.40;;
3006;SDS011;1513;47.650;10.720;2023-05-07T08:15:01;2.70;;;2.20;;
3006;SDS011;1513;47.650;10.720;2023-05-07T08:17:28;2.50;;;2.30;;
3006;SDS011;1513;47.650;10.720;2023-05-07T08:19:55;3.30;;;2.20;;
3006;SDS011;1513;47.650;10.720;2023-05-07T08:22:21;2.70;;;2.50;;
3006;SDS011;1513;47.650;10.720;2023-05-07T08:24:49;2.50;;;2.30;;
3006;SDS011;1513;47.650;10.720;2023-05-07T08:27:16;2.67;;;2.47;;
3006;SDS011;1513;47.650;10.720;2023-05-07T08:29:42;3.03;;;2.60;;
3006;SDS011;1513;47.650;10.720;2023-05-07T08:32:13;2.70;;;2.50;;
3006;SDS011;1513;47.650;10.720;2023-05-07T08:34:40;3.57;;;2.33;;
3006;SDS011;1513;47.650;10.720;2023-05-07T08:37:06;4.40;;;2.70;;
3006;SDS011;1513;47.650;10.720;2023-05-07T08:39:33;3.00;;;2.80;;
3006;SDS011;1513;47.650;10.720;2023-05-07T08:42:01;3.30;;;3.00;;
3006;SDS011;1513;47.650;10.720;2023-05-07T08:44:33;3.30;;;3.00;;
3006;SDS011;1513;47.650;10.720;2023-05-07T08:47:02;2.90;;;2.70;;
3006;SDS011;1513;47.650;10.720;2023-05-07T08:49:33;3.40;;;3.10;;
3006;SDS011;1513;47.650;10.720;2023-05-07T08:52:00;3.13;;;2.80;;
3006;SDS011;1513;47.650;10.720;2023-05-07T08:54:27;2.80;;;2.60;;
3006;SDS011;1513;47.650;10.720;2023-05-07T08:56:55;3.53;;;2.60;;
3006;SDS011;1513;47.650;10.720;2023-05-07T08:59:22;3.37;;;3.07;;
3006;SDS011;1513;47.650;10.720;2023-05-07T09:01:48;5.07;;;2.87;;
3006;SDS011;1513;47.650;10.720;2023-05-07T09:04:16;2.93;;;2.73;;
3006;SDS011;1513;47.650;10.720;2023-05-07T09:06:43;2.60;;;2.40;;
3006;SDS011;1513;47.650;10.720;2023-05-07T09:09:14;4.30;;;2.97;;
3006;SDS011;1513;47.650;10.720;2023-05-07T09:11:42;3.43;;;3.10;;
3006;SDS011;1513;47.650;10.720;2023-05-07T09:14:10;3.03;;;2.83;;
3006;SDS011;1513;47.650;10.720;2023-05-07T09:16:40;4.10;;;2.87;;
3006;SDS011;1513;47.650;10.720;2023-05-07T09:19:07;3.53;;;2.70;;
3006;SDS011;1513;47.650;10.720;2023-05-07T09:21:34;3.47;;;3.03;;
3006;SDS011;1513;47.650;10.720;2023-05-07T09:24:04;4.60;;;2.50;;
3006;SDS011;1513;47.650;10.720;2023-05-07T09:26:36;3.80;;;3.30;;
3006;SDS011;1513;47.650;10.720;2023-05-07T09:29:04;4.93;;;3.10;;
3006;SDS011;1513;47.650;10.720;2023-05-07T09:31:31;2.80;;;2.60;;
3006;SDS011;1513;47.650;10.720;2023-05-07T09:33:58;4.10;;;2.93;;
3006;SDS011;1513;47.650;10.720;2023-05-07T09:36:28;3.60;;;2.40;;
3006;SDS011;1513;47.650;10.720;2023-05-07T09:38:55;2.60;;;2.40;;
3006;SDS011;1513;47.650;10.720;2023-05-07T09:41:22;2.57;;;2.37;;
3006;SDS011;1513;47.650;10.720;2023-05-07T09:43:56;2.53;;;2.33;;
3006;SDS011;1513;47.650;10.720;2023-05-07T09:46:30;2.00;;;1.90;;
3006;SDS011;1513;47.650;10.720;2023-05-07T09:48:59;2.67;;;2.13;;
3006;SDS011;1513;47.650;10.720;2023-05-07T09:51:51;2.60;;;2.40;;
3006;SDS011;1513;47.650;10.720;2023-05-07T09:54:19;3.13;;;2.70;;
3006;SDS011;1513;47.650;10.720;2023-05-07T09:56:48;4.00;;;2.30;;
3006;SDS011;1513;47.650;10.720;2023-05-07T09:59:16;2.03;;;1.93;;
3006;SDS011;1513;47.650;10.720;2023-05-07T10:01:44;2.10;;;2.00;;
3006;SDS011;1513;47.650;10.720;2023-05-07T10:04:12;2.33;;;2.20;;
3006;SDS011;1513;47.650;10.720;2023-05-07T10:06:40;1.97;;;1.87;;
3006;SDS011;1513;47.650;10.720;2023-05-07T10:09:07;2.83;;;2.37;;
3006;SDS011;1513;47.650;10.720;2023-05-07T10:11:33;1.90;;;1.80;;
3006;SDS011;1513;47.650;10.720;2023-05-07T10:14:04;2.20;;;2.10;;
3006;SDS011;1513;47.650;10.720;2023-05-07T10:16:32;2.43;;;2.23;;
3006;SDS011;1513;47.650;10.720;2023-05-07T10:19:06;2.17;;;2.07;;
3006;SDS011;1513;47.650;10.720;2023-05-07T10:21:47;4.33;;;2.23;;
3006;SDS011;1513;47.650;10.720;2023-05-07T10:24:26;1.90;;;1.80;;
3006;SDS011;1513;47.650;10.720;2023-05-07T10:27:10;3.33;;;2.30;;
3006;SDS011;1513;47.650;10.720;2023-05-07T10:34:53;2.20;;;2.00;;
3006;SDS011;1513;47.650;10.720;2023-05-07T10:37:22;7.40;;;2.47;;
3006;SDS011;1513;47.650;10.720;2023-05-07T10:39:48;2.00;;;1.90;;
3006;SDS011;1513;47.650;10.720;2023-05-07T10:42:16;2.93;;;1.97;;
3006;SDS011;1513;47.650;10.720;2023-05-07T10:44:48;4.83;;;2.50;;
3006;SDS011;1513;47.650;10.720;2023-05-07T10:47:21;1.87;;;1.70;;
3006;SDS011;1513;47.650;10.720;2023-05-07T10:52:22;2.73;;;2.40;;
3006;SDS011;1513;47.650;10.720;2023-05-07T11:00:55;4.00;;;2.10;;
3006;SDS011;1513;47.650;10.720;2023-05-07T11:03:28;1.73;;;1.63;;
3006;SDS011;1513;47.650;10.720;2023-05-07T11:06:12;2.13;;;2.03;;
3006;SDS011;1513;47.650;10.720;2023-05-07T11:09:00;4.50;;;2.30;;
3006;SDS011;1513;47.650;10.720;2023-05-07T11:11:53;1.90;;;1.80;;
3006;SDS011;1513;47.650;10.720;2023-05-07T11:17:11;2.17;;;2.07;;
3006;SDS011;1513;47.650;10.720;2023-05-07T11:19:56;2.17;;;2.07;;
3006;SDS011;1513;47.650;10.720;2023-05-07T11:22:36;2.00;;;1.90;;
3006;SDS011;1513;47.650;10.720;2023-05-07T11:25:22;1.97;;;1.87;;
3006;SDS011;1513;47.650;10.720;2023-05-07T11:27:56;2.00;;;1.90;;
3006;SDS011;1513;47.650;10.720;2023-05-07T11:30:36;4.60;;;2.40;;
3006;SDS011;1513;47.650;10.720;2023-05-07T11:33:04;2.70;;;2.47;;
3006;SDS011;1513;47.650;10.720;2023-05-07T11:35:32;6.53;;;2.10;;
3006;SDS011;1513;47.650;10.720;2023-05-07T11:37:59;2.70;;;2.30;;
3006;SDS011;1513;47.650;10.720;2023-05-07T11:40:27;2.20;;;2.10;;
3006;SDS011;1513;47.650;10.720;2023-05-07T11:42:53;2.20;;;2.00;;
3006;SDS011;1513;47.650;10.720;2023-05-07T11:45:23;2.90;;;2.30;;
3006;SDS011;1513;47.650;10.720;2023-05-07T11:47:53;2.20;;;2.10;;
3006;SDS011;1513;47.650;10.720;2023-05-07T11:50:19;3.23;;;1.90;;
3006;SDS011;1513;47.650;10.720;2023-05-07T11:52:50;1.57;;;1.47;;
3006;SDS011;1513;47.650;10.720;2023-05-07T11:55:18;1.77;;;1.57;;
3006;SDS011;1513;47.650;10.720;2023-05-07T11:57:44;2.60;;;2.13;;
3006;SDS011;1513;47.650;10.720;2023-05-07T12:00:11;5.03;;;1.60;;
3006;SDS011;1513;47.650;10.720;2023-05-07T12:02:42;4.77;;;1.77;;
3006;SDS011;1513;47.650;10.720;2023-05-07T12:05:08;2.07;;;1.40;;
3006;SDS011;1513;47.650;10.720;2023-05-07T12:07:35;1.83;;;1.40;;
3006;SDS011;1513;47.650;10.720;2023-05-07T12:10:05;4.83;;;1.60;;
3006;SDS011;1513;47.650;10.720;2023-05-07T12:12:37;2.30;;;2.10;;
3006;SDS011;1513;47.650;10.720;2023-05-07T12:15:05;2.03;;;1.93;;
3006;SDS011;1513;47.650;10.720;2023-05-07T12:17:31;1.93;;;1.83;;
3006;SDS011;1513;47.650;10.720;2023-05-07T12:19:58;2.17;;;2.07;;
3006;SDS011;1513;47.650;10.720;2023-05-07T12:22:25;3.60;;;1.70;;
3006;SDS011;1513;47.650;10.720;2023-05-07T12:24:57;2.70;;;1.43;;
3006;SDS011;1513;47.650;10.720;2023-05-07T12:27:25;2.00;;;1.40;;
3006;SDS011;1513;47.650;10.720;2023-05-07T12:29:51;1.37;;;1.30;;
3006;SDS011;1513;47.650;10.720;2023-05-07T12:32:18;1.50;;;1.40;;
3006;SDS011;1513;47.650;10.720;2023-05-07T12:34:46;1.80;;;1.70;;
3006;SDS011;1513;47.650;10.720;2023-05-07T12:37:22;3.00;;;1.23;;
3006;SDS011;1513;47.650;10.720;2023-05-07T12:39:49;2.10;;;1.57;;
3006;SDS011;1513;47.650;10.720;2023-05-07T12:42:33;1.77;;;1.67;;
3006;SDS011;1513;47.650;10.720;2023-05-07T12:45:08;1.73;;;1.63;;
3006;SDS011;1513;47.650;10.720;2023-05-07T12:47:38;1.70;;;1.60;;
3006;SDS011;1513;47.650;10.720;2023-05-07T12:50:05;2.20;;;2.10;;
3006;SDS011;1513;47.650;10.720;2023-05-07T12:52:32;2.43;;;1.80;;
3006;SDS011;1513;47.650;10.720;2023-05-07T12:55:06;1.93;;;1.83;;
3006;SDS011;1513;47.650;10.720;2023-05-07T12:57:39;2.10;;;2.00;;
3006;SDS011;1513;47.650;10.720;2023-05-07T13:00:07;2.10;;;2.00;;
3006;SDS011;1513;47.650;10.720;2023-05-07T13:02:37;2.17;;;2.07;;
3006;SDS011;1513;47.650;10.720;2023-05-07T13:05:04;2.70;;;2.03;;
3006;SDS011;1513;47.650;10.720;2023-05-07T13:07:30;4.43;;;2.30;;
3006;SDS011;1513;47.650;10.720;2023-05-07T13:09:56;2.20;;;2.10;;
3006;SDS011;1513;47.650;10.720;2023-05-07T13:12:23;2.13;;;1.93;;
3006;SDS011;1513;47.650;10.720;2023-05-07T13:14:49;1.90;;;1.80;;
3006;SDS011;1513;47.650;10.720;2023-05-07T13:17:15;1.23;;;1.13;;
3006;SDS011;1513;47.650;10.720;2023-05-07T13:19:43;3.70;;;1.63;;
3006;SDS011;1513;47.650;10.720;2023-05-07T13:22:10;2.40;;;2.20;;
3006;SDS011;1513;47.650;10.720;2023-05-07T13:24:36;2.53;;;2.30;;
3006;SDS011;1513;47.650;10.720;2023-05-07T13:27:02;2.70;;;2.23;;
3006;SDS011;1513;47.650;10.720;2023-05-07T13:29:29;2.90;;;2.20;;
3006;SDS011;1513;47.650;10.720;2023-05-07T13:31:56;3.43;;;2.17;;
3006;SDS011;1513;47.650;10.720;2023-05-07T13:34:22;1.60;;;1.50;;
3006;SDS011;1513;47.650;10.720;2023-05-07T13:36:49;2.07;;;1.97;;
3006;SDS011;1513;47.650;10.720;2023-05-07T13:39:15;2.30;;;1.60;;
3006;SDS011;1513;47.650;10.720;2023-05-07T13:41:41;2.00;;;1.90;;
3006;SDS011;1513;47.650;10.720;2023-05-07T13:44:08;2.00;;;1.90;;
3006;SDS011;1513;47.650;10.720;2023-05-07T13:46:34;2.20;;;2.10;;
3006;SDS011;1513;47.650;10.720;2023-05-07T13:49:00;2.23;;;2.13;;
3006;SDS011;1513;47.650;10.720;2023-05-07T13:51:27;1.97;;;1.87;;
3006;SDS011;1513;47.650;10.720;2023-05-07T13:53:53;1.97;;;1.87;;
3006;SDS011;1513;47.650;10.720;2023-05-07T13:56:19;2.43;;;1.60;;
3006;SDS011;1513;47.650;10.720;2023-05-07T13:58:46;2.80;;;1.90;;
3006;SDS011;1513;47.650;10.720;2023-05-07T14:01:12;3.37;;;2.37;;
3006;SDS011;1513;47.650;10.720;2023-05-07T14:03:39;2.37;;;2.10;;
3006;SDS011;1513;47.650;10.720;2023-05-07T14:06:05;1.90;;;1.80;;
3006;SDS011;1513;47.650;10.720;2023-05-07T14:08:31;3.67;;;1.50;;
3006;SDS011;1513;47.650;10.720;2023-05-07T14:10:57;1.83;;;1.73;;
3006;SDS011;1513;47.650;10.720;2023-05-07T14:13:25;1.40;;;1.40;;
3006;SDS011;1513;47.650;10.720;2023-05-07T14:15:51;1.50;;;1.40;;
3006;SDS011;1513;47.650;10.720;2023-05-07T14:18:18;1.90;;;1.80;;
3006;SDS011;1513;47.650;10.720;2023-05-07T14:20:44;2.33;;;1.90;;
3006;SDS011;1513;47.650;10.720;2023-05-07T14:23:11;1.63;;;1.53;;
3006;SDS011;1513;47.650;10.720;2023-05-07T14:25:38;1.60;;;1.50;;
3006;SDS011;1513;47.650;10.720;2023-05-07T14:28:04;3.00;;;2.10;;
3006;SDS011;1513;47.650;10.720;2023-05-07T14:30:30;3.33;;;2.13;;
3006;SDS011;1513;47.650;10.720;2023-05-07T14:32:57;2.67;;;2.10;;
3006;SDS011;1513;47.650;10.720;2023-05-07T14:35:23;3.77;;;2.07;;
3006;SDS011;1513;47.650;10.720;2023-05-07T14:37:49;1.77;;;1.67;;
3006;SDS011;1513;47.650;10.720;2023-05-07T14:40:15;3.57;;;1.80;;
3006;SDS011;1513;47.650;10.720;2023-05-07T14:42:42;2.10;;;1.90;;
3006;SDS011;1513;47.650;10.720;2023-05-07T14:45:09;2.63;;;2.17;;
3006;SDS011;1513;47.650;10.720;2023-05-07T14:47:35;2.00;;;1.90;;
3006;SDS011;1513;47.650;10.720;2023-05-07T14:50:01;2.13;;;2.03;;
3006;SDS011;1513;47.650;10.720;2023-05-07T14:52:28;2.97;;;2.20;;
3006;SDS011;1513;47.650;10.720;2023-05-07T14:54:54;2.40;;;2.20;;
3006;SDS011;1513;47.650;10.720;2023-05-07T14:57:20;1.87;;;1.77;;
3006;SDS011;1513;47.650;10.720;2023-05-07T14:59:47;2.10;;;1.90;;
3006;SDS011;1513;47.650;10.720;2023-05-07T15:02:14;1.90;;;1.80;;
3006;SDS011;1513;47.650;10.720;2023-05-07T15:04:40;2.03;;;1.83;;
3006;SDS011;1513;47.650;10.720;2023-05-07T15:07:14;2.80;;;1.83;;
3006;SDS011;1513;47.650;10.720;2023-05-07T15:09:41;1.90;;;1.80;;
3006;SDS011;1513;47.650;10.720;2023-05-07T15:12:07;1.90;;;1.80;;
3006;SDS011;1513;47.650;10.720;2023-05-07T15:14:34;2.30;;;2.00;;
3006;SDS011;1513;47.650;10.720;2023-05-07T15:17:00;2.07;;;1.87;;
3006;SDS011;1513;47.650;10.720;2023-05-07T15:19:27;2.37;;;2.17;;